Terminal Aerodrome Forecast
Issued by NWS Birmingham, AL

Home | Current Version | Previous Version | Text Only | Print | Product List | Glossary On
Versions: 1 2 3 4 5 6 7 8 9 10 11 12 13 14 15 16 17
244
FTUS44 KBMX 241135
TAFBHM
TAF
KBHM 241135Z 2412/2512 VRB03KT P6SM SCT040 SCT250
     FM241800 15006KT P6SM VCTS BKN050CB
     FM250000 VRB02KT P6SM BKN250=

USA.gov is the U.S. government's official web portal to all federal, state and local government web resources and services.